Time;durP1;ratioP1;P1;durP2;ratioP2;P2;SDS_P1;SDS_P2;PMS_P1;PMS_P2;Temp;Humidity;BMP_temperature;BMP_pressure;BME280_temperature;BME280_humidity;BME280_pressure;Samples;Min_cycle;Max_cycle;Signal;HPM_P1;HPM_P2
2022/08/26 00:01:25;;;;;;;14.68;5.18;;;;;;;27.16;64.23;100505.63;5033384;28;20474;-82
2022/08/26 00:03:51;;;;;;;12.32;4.55;;;;;;;27.18;64.09;100519.88;5051414;28;20078;-83
2022/08/26 00:06:17;;;;;;;14.43;4.82;;;;;;;27.19;64.07;100520.75;5050557;28;20028;-81
2022/08/26 00:08:43;;;;;;;13.40;4.45;;;;;;;27.20;64.50;100523.41;5050827;28;20075;-82
2022/08/26 00:11:09;;;;;;;18.20;5.25;;;;;;;27.19;64.35;100520.75;5050186;28;20032;-82
2022/08/26 00:13:35;;;;;;;15.60;4.57;;;;;;;27.20;64.25;100530.56;5038765;28;20104;-83
2022/08/26 00:16:01;;;;;;;13.02;4.85;;;;;;;27.20;64.03;100530.56;5032327;28;20033;-83
2022/08/26 00:18:27;;;;;;;12.75;4.50;;;;;;;27.18;64.49;100510.94;5033488;28;20017;-83
2022/08/26 00:20:53;;;;;;;14.35;5.00;;;;;;;27.15;64.51;100494.91;5049173;28;20413;-82
2022/08/26 00:23:19;;;;;;;18.73;5.22;;;;;;;27.15;64.48;100501.16;5030361;28;20041;-82
2022/08/26 00:25:45;;;;;;;13.57;4.97;;;;;;;27.08;64.30;100498.63;5033095;28;20032;-82
2022/08/26 00:28:11;;;;;;;12.48;5.00;;;;;;;27.16;63.92;100505.63;5049717;28;20075;-82
2022/08/26 00:30:37;;;;;;;13.02;4.55;;;;;;;27.18;64.35;100494.88;5048480;28;20469;-82
2022/08/26 00:33:04;;;;;;;13.70;4.85;;;;;;;27.20;64.65;100493.91;5030119;28;20685;-81
2022/08/26 00:35:30;;;;;;;12.07;4.43;;;;;;;27.14;63.80;100471.72;5031335;28;20527;-82
2022/08/26 00:37:56;;;;;;;14.13;4.55;;;;;;;27.17;63.55;100485.91;5050501;28;20037;-82
2022/08/26 00:40:32;;;;;;;12.32;4.85;;;;;;;27.18;64.18;100498.44;5031753;28;20029;-81
2022/08/26 00:42:58;;;;;;;11.30;4.67;;;;;;;27.17;63.97;100495.78;5033366;28;20036;-82
2022/08/26 00:45:23;;;;;;;9.85;4.88;;;;;;;27.16;64.54;100497.56;5049045;28;20104;-82
2022/08/26 00:47:53;;;;;;;15.35;4.85;;;;;;;27.19;63.80;100480.53;5031131;28;20128;-82
2022/08/26 00:50:22;;;;;;;9.88;4.53;;;;;;;27.17;64.09;100487.72;5032935;28;20028;-82
2022/08/26 00:52:49;;;;;;;14.63;4.75;;;;;;;27.18;64.27;100502.91;5022572;28;20104;-82
2022/08/26 00:55:18;;;;;;;14.43;5.00;;;;;;;27.12;64.43;100492.31;5018800;28;20086;-82
2022/08/26 00:57:45;;;;;;;11.75;4.57;;;;;;;27.16;64.72;100489.53;5049999;28;20546;-85
2022/08/26 01:00:15;;;;;;;15.68;4.85;;;;;;;27.16;64.73;100497.56;5033077;28;20040;-84
2022/08/26 01:02:43;;;;;;;13.07;4.95;;;;;;;26.99;64.77;100456.81;5032493;28;20031;-82
2022/08/26 01:05:10;;;;;;;12.73;4.68;;;;;;;27.13;64.71;100475.28;5031213;28;20032;-82
2022/08/26 01:07:36;;;;;;;11.75;4.78;;;;;;;27.11;64.33;100463.72;5052308;28;20117;-82
2022/08/26 01:10:06;;;;;;;10.77;4.53;;;;;;;27.15;64.16;100473.47;5049334;28;20112;-82
2022/08/26 01:12:36;;;;;;;10.65;4.57;;;;;;;26.75;64.59;100412.56;5050285;28;20025;-82
2022/08/26 01:15:02;;;;;;;13.80;4.32;;;;;;;27.04;64.74;100462.94;5040795;28;20103;-82
2022/08/26 01:17:28;;;;;;;12.55;4.43;;;;;;;27.15;64.42;100492.22;5031178;28;20087;-83
2022/08/26 01:20:11;;;;;;;14.85;4.70;;;;;;;27.16;64.78;100491.34;5030813;28;20052;-82
2022/08/26 01:23:01;;;;;;;15.65;4.63;;;;;;;27.02;64.51;100462.97;5049584;28;20052;-83
2022/08/26 01:25:32;;;;;;;9.30;4.20;;;;;;;27.09;64.38;100477.13;5036116;28;20044;-83
2022/08/26 01:28:00;;;;;;;12.98;4.88;;;;;;;27.07;64.32;100475.41;5033453;28;20040;-83
2022/08/26 01:30:26;;;;;;;10.63;4.65;;;;;;;27.08;64.45;100475.38;5034322;28;20036;-82
2022/08/26 01:32:54;;;;;;;10.13;4.18;;;;;;;27.11;64.23;100479.78;5030592;28;20032;-81
2022/08/26 01:35:20;;;;;;;16.23;4.60;;;;;;;27.10;64.24;100481.59;5036002;28;20024;-81
2022/08/26 01:37:47;;;;;;;12.85;4.47;;;;;;;26.99;64.14;100467.53;5036046;28;20098;-82
2022/08/26 01:40:19;;;;;;;14.55;4.15;;;;;;;27.07;64.06;100470.03;5035883;28;20104;-82
2022/08/26 01:42:45;;;;;;;9.88;4.40;;;;;;;27.04;64.32;100479.03;5035475;28;20483;-82
2022/08/26 01:45:18;;;;;;;15.95;4.72;;;;;;;27.08;64.06;100479.88;5035082;28;20033;-82
2022/08/26 01:47:45;;;;;;;11.75;4.15;;;;;;;26.97;63.93;100455.94;5025358;28;20025;-82
2022/08/26 01:50:14;;;;;;;11.80;4.47;;;;;;;27.02;64.05;100465.66;5035495;28;20029;-82
2022/08/26 01:52:41;;;;;;;15.43;4.72;;;;;;;26.85;63.89;100435.63;5036075;28;20119;-82
2022/08/26 01:55:08;;;;;;;10.60;4.45;;;;;;;27.09;64.15;100471.78;5053845;28;20024;-81
2022/08/26 01:57:34;;;;;;;12.80;4.47;;;;;;;27.09;63.84;100470.91;5051660;28;20036;-81
2022/08/26 02:00:06;;;;;;;12.65;4.80;;;;;;;27.02;63.99;100470.13;5026779;28;20083;-81
2022/08/26 02:02:32;;;;;;;12.70;4.22;;;;;;;27.02;63.92;100457.59;5032504;28;20021;-81
2022/08/26 02:05:00;;;;;;;10.30;4.00;;;;;;;27.00;63.70;100450.53;5053180;28;20424;-81
2022/08/26 02:07:27;;;;;;;17.73;4.60;;;;;;;26.95;63.94;100439.91;5035415;28;20501;-81
2022/08/26 02:09:53;;;;;;;16.20;4.47;;;;;;;27.03;63.87;100447.78;5034704;28;20021;-81
2022/08/26 02:12:19;;;;;;;10.85;4.10;;;;;;;26.70;64.10;100399.28;5052503;28;20035;-81
2022/08/26 02:14:52;;;;;;;11.32;4.53;;;;;;;27.05;64.23;100454.00;5017633;28;20029;-83
2022/08/26 02:17:21;;;;;;;9.57;3.72;;;;;;;27.02;64.33;100465.66;5036392;28;20025;-82
2022/08/26 02:19:48;;;;;;;9.18;4.57;;;;;;;27.05;64.14;100461.16;5034055;28;20020;-81
2022/08/26 02:22:18;;;;;;;12.85;4.57;;;;;;;27.03;64.00;100463.88;5019037;28;20417;-81
2022/08/26 02:24:48;;;;;;;11.73;4.18;;;;;;;27.04;63.87;100462.94;5051885;28;20029;-81
2022/08/26 02:27:21;;;;;;;8.90;3.88;;;;;;;27.05;64.18;100467.41;5053172;28;20029;-81
2022/08/26 02:30:09;;;;;;;14.90;4.13;;;;;;;27.01;64.02;100460.34;5033619;28;20080;-81
2022/08/26 02:32:35;;;;;;;8.55;4.35;;;;;;;26.97;64.15;100470.22;5034562;28;20037;-81
2022/08/26 02:35:00;;;;;;;11.10;4.35;;;;;;;27.01;64.30;100471.06;5033373;28;20370;-81
2022/08/26 02:37:30;;;;;;;11.85;4.22;;;;;;;26.94;63.79;100478.31;5052033;28;20401;-82
2022/08/26 02:39:56;;;;;;;10.88;4.13;;;;;;;26.93;64.58;100467.63;5039810;28;20032;-81
2022/08/26 02:42:22;;;;;;;12.00;4.35;;;;;;;26.97;63.76;100459.50;5035334;28;20028;-81
2022/08/26 02:44:47;;;;;;;8.93;4.18;;;;;;;27.01;63.89;100476.44;5052288;28;20552;-81
2022/08/26 02:47:14;;;;;;;9.43;3.85;;;;;;;26.89;64.22;100468.59;5051940;28;20021;-81
2022/08/26 02:49:42;;;;;;;15.13;4.05;;;;;;;26.85;64.60;100470.44;5034214;28;20152;-82
2022/08/26 02:52:08;;;;;;;12.05;4.13;;;;;;;26.86;64.29;100460.59;5032391;28;20104;-81
2022/08/26 02:54:34;;;;;;;12.80;4.53;;;;;;;26.84;64.89;100486.53;5035034;28;20024;-82
2022/08/26 02:57:00;;;;;;;12.20;3.85;;;;;;;26.68;64.59;100476.09;5052681;28;20052;-82
2022/08/26 02:59:25;;;;;;;12.70;4.20;;;;;;;26.81;64.34;100490.16;5048659;28;20037;-81
2022/08/26 03:01:51;;;;;;;11.55;4.07;;;;;;;26.86;64.55;100496.34;5034715;28;20029;-81
2022/08/26 03:04:17;;;;;;;9.25;4.32;;;;;;;26.86;64.48;100482.03;5034285;28;20028;-81
2022/08/26 03:06:43;;;;;;;10.57;4.20;;;;;;;26.76;64.84;100506.31;5051915;28;20188;-81
2022/08/26 03:09:09;;;;;;;10.20;3.88;;;;;;;26.88;64.21;100505.25;5051936;28;20040;-83
2022/08/26 03:11:35;;;;;;;;;;;;;;;26.97;63.90;100523.81;5052479;28;20059;-81
2022/08/26 03:14:02;;;;;;;12.20;4.13;;;;;;;26.88;64.13;100518.63;5034013;28;20376;-83
2022/08/26 03:16:31;;;;;;;12.65;4.05;;;;;;;26.54;63.75;100446.84;5049561;28;20037;-82
2022/08/26 03:18:57;;;;;;;13.00;4.05;;;;;;;26.74;64.19;100494.75;5051196;28;20032;-82
2022/08/26 03:21:22;;;;;;;11.88;4.60;;;;;;;26.93;63.88;100526.59;5052095;28;20017;-82
2022/08/26 03:23:48;;;;;;;10.60;4.20;;;;;;;26.77;63.73;100501.84;5051973;28;20075;-83
2022/08/26 03:26:14;;;;;;;;;;;;;;;26.99;63.76;100534.53;5051825;28;20445;-83
2022/08/26 03:30:38;;;;;;;14.35;4.45;;;;;;;26.91;63.84;100521.25;5051272;28;20448;-83
2022/08/26 03:31:25;;;;;;;10.90;3.92;;;;;;;26.95;63.63;100533.69;5052028;28;20040;-81
2022/08/26 03:33:51;;;;;;;9.45;4.05;;;;;;;26.85;63.93;100529.38;5033661;28;20029;-82
2022/08/26 03:36:17;;;;;;;13.55;3.95;;;;;;;26.78;64.04;100517.03;5042758;28;20029;-84
2022/08/26 03:38:42;;;;;;;7.30;3.80;;;;;;;26.63;63.77;100490.47;5047352;28;20036;-83
2022/08/26 03:41:10;;;;;;;11.13;3.83;;;;;;;26.97;63.46;100547.94;5017090;28;20024;-83
2022/08/26 03:43:36;;;;;;;9.73;4.00;;;;;;;26.89;63.64;100541.81;5046808;28;20035;-83
2022/08/26 03:46:06;;;;;;;8.85;3.85;;;;;;;26.72;63.51;100515.31;5030494;28;20060;-82
2022/08/26 03:48:32;;;;;;;8.15;3.90;;;;;;;26.69;63.74;100511.78;5015682;28;20414;-84
2022/08/26 03:50:59;;;;;;;12.00;4.20;;;;;;;26.81;63.61;100535.72;5028634;28;20026;-82
2022/08/26 03:53:24;;;;;;;9.27;3.53;;;;;;;26.91;63.30;100548.03;5047958;28;20448;-82
2022/08/26 03:55:50;;;;;;;8.68;4.20;;;;;;;26.90;63.53;100548.06;5042732;28;20030;-82
2022/08/26 03:58:15;;;;;;;10.85;4.00;;;;;;;26.83;63.36;100539.25;5047767;28;20419;-83
2022/08/26 04:00:41;;;;;;;9.70;3.85;;;;;;;26.87;63.47;100558.84;5020630;28;20033;-83
2022/08/26 04:03:07;;;;;;;8.02;4.03;;;;;;;26.88;63.30;100558.84;5046401;28;20025;-83
2022/08/26 04:05:32;;;;;;;;;;;;;;;26.95;63.34;100573.00;5049054;28;20471;-83
2022/08/26 04:07:58;;;;;;;9.82;4.15;;;;;;;26.66;63.31;100541.31;5051008;28;20075;-83
2022/08/26 04:10:26;;;;;;;12.32;3.85;;;;;;;26.90;63.27;100572.19;5031749;28;20520;-83
2022/08/26 04:12:52;;;;;;;11.30;3.90;;;;;;;26.88;63.22;100574.00;5029265;28;20036;-82
2022/08/26 04:15:19;;;;;;;11.45;3.80;;;;;;;26.86;63.57;100576.72;5050274;28;20028;-82
2022/08/26 04:17:44;;;;;;;7.57;3.60;;;;;;;26.85;63.51;100566.03;5033453;28;20029;-81
2022/08/26 04:20:15;;;;;;;13.27;4.28;;;;;;;26.87;63.52;100566.88;5051071;28;20147;-81
2022/08/26 04:22:41;;;;;;;11.05;3.97;;;;;;;26.82;63.41;100556.25;5034395;28;20227;-81
2022/08/26 04:25:08;;;;;;;13.60;4.07;;;;;;;26.74;63.53;100572.44;5032983;28;20558;-81
2022/08/26 04:27:34;;;;;;;10.98;4.20;;;;;;;26.62;63.69;100547.63;5050944;28;20028;-81
2022/08/26 04:29:59;;;;;;;9.48;4.35;;;;;;;26.77;63.30;100558.09;5050337;28;20382;-81
2022/08/26 04:32:25;;;;;;;13.68;4.30;;;;;;;26.84;63.16;100572.28;5032267;28;20414;-81
2022/08/26 04:34:51;;;;;;;7.68;3.88;;;;;;;26.66;63.44;100538.66;5044032;28;20029;-82
2022/08/26 04:37:16;;;;;;;6.38;3.47;;;;;;;26.85;63.38;100571.38;5048864;28;20028;-82
2022/08/26 04:39:42;;;;;;;10.23;3.78;;;;;;;26.55;63.20;100530.75;5050374;28;20044;-81
2022/08/26 04:42:08;;;;;;;9.02;3.85;;;;;;;26.67;63.35;100557.38;5050643;28;20029;-81
2022/08/26 04:44:33;;;;;;;;;;;;;;;26.88;63.18;100577.59;5031839;28;20033;-82
2022/08/26 04:46:59;;;;;;;11.60;3.90;;;;;;;26.84;63.41;100574.94;5013974;28;19939;-81
2022/08/26 04:49:25;;;;;;;10.27;4.05;;;;;;;26.83;63.16;100581.25;5050099;28;20090;-80
2022/08/26 04:51:51;;;;;;;7.47;3.75;;;;;;;26.78;63.45;100554.53;5031882;28;20140;-81
2022/08/26 04:54:17;;;;;;;7.30;3.83;;;;;;;26.84;63.36;100569.59;5017418;28;20028;-81
2022/08/26 04:56:44;;;;;;;8.88;3.88;;;;;;;26.84;63.45;100561.56;5051540;28;20043;-81
2022/08/26 04:59:14;;;;;;;11.93;3.85;;;;;;;26.88;63.17;100572.22;5042107;28;20049;-81
2022/08/26 05:01:51;;;;;;;10.30;3.80;;;;;;;26.85;63.50;100564.22;5029529;28;20056;-81
2022/08/26 05:04:18;;;;;;;11.18;4.40;;;;;;;26.80;63.31;100564.31;5050280;28;20025;-81
2022/08/26 05:06:43;;;;;;;11.50;4.05;;;;;;;26.73;63.47;100568.00;5048755;28;20055;-83
2022/08/26 05:09:09;;;;;;;9.65;4.00;;;;;;;26.58;63.61;100538.75;5044570;28;20029;-84
2022/08/26 05:11:36;;;;;;;9.75;3.97;;;;;;;26.35;63.58;100499.81;5029206;28;20047;-82
2022/08/26 05:14:01;;;;;;;10.88;3.95;;;;;;;26.61;63.40;100536.03;5048947;28;20017;-83
2022/08/26 05:16:28;;;;;;;;;;;;;;;26.78;63.32;100557.22;5050237;28;20140;-82
2022/08/26 05:18:54;;;;;;;9.57;4.10;;;;;;;26.77;63.03;100558.97;5050975;28;19912;-83
2022/08/26 05:21:22;;;;;;;9.02;3.97;;;;;;;26.54;63.63;100542.34;5032333;28;20061;-81
2022/08/26 05:23:50;;;;;;;13.10;4.20;;;;;;;26.64;63.36;100568.13;5026439;28;20116;-82
2022/08/26 05:26:16;;;;;;;9.90;3.92;;;;;;;26.60;63.56;100551.22;5025000;28;20033;-81
2022/08/26 05:28:42;;;;;;;9.35;3.80;;;;;;;26.66;63.20;100569.00;5050648;28;20029;-82
2022/08/26 05:31:11;;;;;;;;;;;;;;;26.69;63.27;100577.00;5050624;28;20032;-83
2022/08/26 05:33:37;;;;;;;7.30;3.92;;;;;;;26.54;63.53;100545.03;5050748;28;19908;-82
2022/08/26 05:36:06;;;;;;;;;;;;;;;26.69;63.22;100565.38;5051630;28;20077;-84
2022/08/26 05:38:32;;;;;;;8.48;3.92;;;;;;;26.65;63.34;100564.56;5013496;28;19946;-83
2022/08/26 05:40:57;;;;;;;;;;;;;;;26.72;63.21;100554.63;5032378;28;20116;-87
2022/08/26 05:43:23;;;;;;;8.20;3.78;;;;;;;26.74;63.02;100555.47;5033093;28;20374;-87
2022/08/26 05:45:49;;;;;;;9.43;4.15;;;;;;;26.72;63.34;100552.81;5032157;28;20402;-85
2022/08/26 05:48:16;;;;;;;;;;;;;;;26.78;63.20;100550.03;5033653;28;20029;-86
2022/08/26 05:50:48;;;;;;;;;;;;;;;26.77;62.98;100550.94;5027238;28;20317;-87
2022/08/26 05:53:16;;;;;;;9.40;3.97;;;;;;;26.71;63.39;100552.84;5012752;28;19913;-87
2022/08/26 05:55:47;;;;;;;12.27;4.40;;;;;;;26.74;63.33;100558.16;5041529;28;20063;-86
2022/08/26 05:58:13;;;;;;;8.75;3.95;;;;;;;26.72;63.32;100570.69;5050057;28;20044;-87
2022/08/26 06:00:38;;;;;;;;;;;;;;;26.77;63.03;100574.16;5030913;28;20025;-86
2022/08/26 06:03:07;;;;;;;10.00;4.07;;;;;;;26.64;63.29;100581.50;5050017;28;19942;-87
2022/08/26 06:05:42;;;;;;;11.40;4.20;;;;;;;26.50;63.33;100575.44;5020962;28;20026;-86
2022/08/26 06:08:12;;;;;;;11.67;4.27;;;;;;;26.52;63.28;100587.03;5048336;28;20750;-87
2022/08/26 06:10:53;;;;;;;11.80;4.30;;;;;;;26.66;63.01;100587.75;5052524;28;20668;-86
2022/08/26 06:13:22;;;;;;;8.52;3.70;;;;;;;26.63;62.68;100584.22;5026372;28;20079;-86
2022/08/26 06:15:49;;;;;;;9.07;3.88;;;;;;;26.65;63.05;100582.41;5035278;28;20481;-87
2022/08/26 06:18:18;;;;;;;11.15;4.25;;;;;;;26.70;63.05;100589.47;5038604;28;20497;-86
2022/08/26 06:20:45;;;;;;;8.05;3.90;;;;;;;26.45;62.67;100555.91;5035581;28;20438;-86
2022/08/26 06:26:13;;;;;;;11.50;3.95;;;;;;;26.52;62.92;100600.41;5008362;28;20041;-90
2022/08/26 06:28:38;;;;;;;9.60;3.50;;;;;;;26.00;62.99;100519.06;5035371;28;20055;-86
2022/08/26 06:31:04;;;;;;;;;;;;;;;26.64;62.80;100616.34;5037753;28;20052;-88
2022/08/26 06:33:31;;;;;;;12.82;4.15;;;;;;;26.39;62.58;100565.81;5034697;28;20340;-88
2022/08/26 06:35:57;;;;;;;7.60;4.15;;;;;;;26.28;62.82;100548.97;5055231;28;20040;-90
2022/08/26 06:38:23;;;;;;;11.52;3.75;;;;;;;26.56;62.61;100587.00;5036018;28;20036;-87
2022/08/26 06:40:50;;;;;;;;;;;;;;;26.69;62.56;100605.53;5035848;28;20025;-86
2022/08/26 06:43:18;;;;;;;12.30;4.05;;;;;;;26.13;62.73;100514.41;5047656;28;20452;-86
2022/08/26 06:45:44;;;;;;;10.50;4.03;;;;;;;26.17;62.88;100521.50;5034787;28;20486;-86
2022/08/26 06:48:14;;;;;;;11.43;3.85;;;;;;;26.44;62.68;100587.16;5035652;28;20128;-87
2022/08/26 06:50:46;;;;;;;7.93;3.95;;;;;;;26.60;62.74;100603.91;4999881;28;20037;-88
2022/08/26 06:53:13;;;;;;;15.55;4.07;;;;;;;26.15;62.42;100529.53;5016620;28;20245;-88
2022/08/26 06:55:40;;;;;;;8.63;4.20;;;;;;;26.58;62.70;100605.72;5019783;28;20020;-88
2022/08/26 06:58:09;;;;;;;11.85;3.80;;;;;;;26.41;62.49;100573.78;5037891;28;20136;-89
2022/08/26 07:00:49;;;;;;;11.38;4.05;;;;;;;26.19;62.70;100550.00;5052986;28;20132;-90
2022/08/26 07:04:08;;;;;;;9.70;3.72;;;;;;;26.64;62.75;100631.53;5043880;28;20028;-86
2022/08/26 07:06:41;;;;;;;10.13;4.13;;;;;;;26.12;62.86;100551.00;5025171;28;20028;-90
2022/08/26 07:09:15;;;;;;;8.18;4.25;;;;;;;26.45;62.42;100598.75;5058989;28;20029;-89
2022/08/26 07:11:43;;;;;;;10.15;4.10;;;;;;;26.44;62.34;100599.63;5050680;28;20032;-91
2022/08/26 07:14:10;;;;;;;11.63;4.30;;;;;;;26.09;62.66;100539.44;5037388;28;20025;-91
2022/08/26 07:16:35;;;;;;;10.38;4.20;;;;;;;26.56;62.57;100623.56;5036756;28;20048;-87
2022/08/26 07:19:01;;;;;;;;;;;;;;;26.65;62.83;100639.56;5057040;28;20024;-90
2022/08/26 07:21:27;;;;;;;7.53;4.35;;;;;;;26.45;62.60;100607.66;5035427;28;19955;-88
2022/08/26 07:23:56;;;;;;;;;;;;;;;26.68;62.83;100641.31;5053390;28;20498;-87
2022/08/26 07:26:27;;;;;;;10.27;3.72;;;;;;;26.44;62.89;100613.03;5041618;28;19913;-83
2022/08/26 07:28:56;;;;;;;10.60;4.20;;;;;;;26.44;62.93;100611.25;5052646;28;20024;-87
2022/08/26 07:31:24;;;;;;;13.75;5.05;;;;;;;26.60;62.81;100644.94;5034788;28;20563;-87
2022/08/26 07:33:51;;;;;;;8.25;4.10;;;;;;;26.51;62.71;100625.44;5053466;28;20035;-89
2022/08/26 07:36:20;;;;;;;7.70;3.88;;;;;;;26.65;63.10;100647.59;5053753;28;20023;-88
2022/08/26 07:38:47;;;;;;;9.90;4.07;;;;;;;26.66;63.06;100649.34;5054103;28;20021;-87
2022/08/26 07:41:14;;;;;;;11.93;4.30;;;;;;;26.32;62.87;100590.88;5038266;28;20021;-87
2022/08/26 07:43:41;;;;;;;11.07;4.30;;;;;;;26.23;62.67;100574.06;5036703;28;20028;-89
2022/08/26 07:46:51;;;;;;;;;;;;;;;;;;;;;
2022/08/26 07:49:18;;;;;;;9.35;3.90;;;;;;;26.39;62.79;100611.31;5035358;28;20409;-88
2022/08/26 07:51:44;;;;;;;8.23;4.35;;;;;;;26.28;62.97;100586.47;5023467;28;20116;-88
2022/08/26 07:54:10;;;;;;;;;;;;;;;26.67;63.01;100644.88;5052527;28;20052;-88
2022/08/26 07:56:38;;;;;;;6.97;3.78;;;;;;;26.12;63.10;100561.72;5049709;28;19966;-89
2022/08/26 07:59:04;;;;;;;11.75;4.60;;;;;;;26.33;63.09;100599.78;5051007;28;20056;-87
2022/08/26 08:01:30;;;;;;;;;;;;;;;26.64;63.10;100648.47;5048565;28;20021;-88
2022/08/26 08:03:56;;;;;;;10.63;4.13;;;;;;;26.12;63.15;100563.47;5055575;28;19913;-87
2022/08/26 08:06:24;;;;;;;13.18;4.45;;;;;;;26.47;63.34;100629.94;5047965;28;20028;-88
2022/08/26 08:08:50;;;;;;;14.98;4.47;;;;;;;26.08;63.07;100559.97;5051324;28;20033;-89
2022/08/26 08:11:19;;;;;;;11.00;4.57;;;;;;;26.58;63.28;100645.88;5033881;28;20088;-89
2022/08/26 08:13:45;;;;;;;9.98;4.75;;;;;;;26.56;63.45;100645.00;5032202;28;20086;-90
2022/08/26 08:16:10;;;;;;;;;;;;;;;26.63;62.83;100651.16;5033110;28;20116;-88
2022/08/26 08:18:36;;;;;;;7.07;4.18;;;;;;;26.09;62.95;100567.09;5050735;28;19917;-88
2022/08/26 08:21:02;;;;;;;9.40;4.68;;;;;;;26.16;63.16;100578.59;5041950;28;20493;-87
2022/08/26 08:23:30;;;;;;;10.95;4.82;;;;;;;26.28;63.20;100604.31;5049571;28;20556;-87
2022/08/26 08:26:16;;;;;;;12.70;4.60;;;;;;;26.16;63.34;100591.97;5035466;28;20029;-90
2022/08/26 08:28:45;;;;;;;13.95;5.30;;;;;;;26.46;63.06;100636.22;5036926;28;20414;-90
2022/08/26 08:31:47;;;;;;;10.70;4.88;;;;;;;26.56;63.23;100636.94;5052112;28;20029;-89
2022/08/26 08:34:14;;;;;;;11.20;4.25;;;;;;;26.40;63.32;100605.03;5025989;28;20021;-88
2022/08/26 08:36:46;;;;;;;10.23;4.10;;;;;;;26.26;63.13;100588.28;5046043;28;20075;-89
2022/08/26 08:39:13;;;;;;;9.90;4.57;;;;;;;26.26;63.68;100590.06;5048872;28;20025;-89
2022/08/26 08:41:54;;;;;;;11.65;4.90;;;;;;;26.51;63.16;100636.16;5031121;28;20163;-88
2022/08/26 08:44:23;;;;;;;14.75;5.30;;;;;;;26.44;63.34;100630.00;5054928;28;20075;-87
2022/08/26 08:47:36;;;;;;;15.52;6.60;;;;;;;26.51;63.60;100633.47;5033563;28;20442;-90
2022/08/26 08:50:10;;;;;;;11.65;4.63;;;;;;;25.73;63.54;100533.63;5044207;28;20086;-89
2022/08/26 08:53:03;;;;;;;12.15;4.75;;;;;;;26.33;63.71;100622.09;5051989;28;20017;-92
2022/08/26 08:56:00;;;;;;;10.32;5.10;;;;;;;25.75;63.33;100521.13;5036501;28;20021;-90
2022/08/26 08:59:03;;;;;;;8.73;4.88;;;;;;;26.41;63.43;100630.91;4975742;28;20092;-91
2022/08/26 09:02:04;;;;;;;10.77;5.15;;;;;;;26.36;63.55;100619.38;4985095;28;20389;-90
2022/08/26 09:04:45;;;;;;;11.98;4.70;;;;;;;26.30;63.52;100619.44;4955688;28;20061;-90
2022/08/26 09:07:43;;;;;;;9.65;4.90;;;;;;;26.06;63.61;100574.28;4990333;28;20102;-88
2022/08/26 09:10:17;;;;;;;12.55;5.00;;;;;;;26.24;63.58;100615.97;4977321;28;20037;-86
2022/08/26 09:12:44;;;;;;;13.65;5.00;;;;;;;26.33;63.65;100619.44;4986876;28;20030;-86
2022/08/26 09:15:43;;;;;;;12.50;4.93;;;;;;;26.37;63.35;100618.47;4973287;28;20064;-89
2022/08/26 09:18:20;;;;;;;8.57;4.80;;;;;;;26.29;63.27;100628.41;4991205;28;20018;-89
2022/08/26 09:21:09;;;;;;;11.77;4.65;;;;;;;25.99;63.08;100562.75;4969748;28;20062;-90
2022/08/26 09:23:38;;;;;;;10.07;4.80;;;;;;;26.03;63.23;100567.16;5017491;28;20410;-93
2022/08/26 09:26:15;;;;;;;11.20;4.38;;;;;;;26.24;63.11;100590.09;5040824;28;20486;-94
2022/08/26 09:28:54;;;;;;;15.70;5.35;;;;;;;26.13;63.35;100586.69;5052831;28;20075;-92
2022/08/26 09:31:35;;;;;;;13.52;5.07;;;;;;;25.92;63.61;100556.59;5033550;28;20116;-85
2022/08/26 09:34:23;;;;;;;9.77;4.75;;;;;;;26.23;63.32;100611.53;5050776;28;20106;-88
2022/08/26 09:36:58;;;;;;;10.13;4.60;;;;;;;25.95;63.26;100566.38;5030251;28;20112;-88
2022/08/26 09:43:28;;;;;;;11.20;4.70;;;;;;;26.27;62.99;100634.66;5042943;28;20056;-85
2022/08/26 09:46:26;;;;;;;9.45;5.22;;;;;;;26.14;63.13;100604.50;5054824;28;20063;-88
2022/08/26 09:49:17;;;;;;;8.77;4.75;;;;;;;26.10;63.49;100603.66;5056540;28;20476;-85
2022/08/26 09:51:43;;;;;;;10.18;4.60;;;;;;;26.09;62.99;100612.59;5023783;28;20037;-86
2022/08/26 09:54:32;;;;;;;10.05;4.63;;;;;;;25.68;63.29;100548.88;5046507;28;20487;-85
2022/08/26 09:57:25;;;;;;;8.45;4.60;;;;;;;26.27;63.45;100646.28;5030345;28;20021;-84
2022/08/26 09:59:52;;;;;;;11.85;4.97;;;;;;;26.25;63.06;100649.88;5045850;28;20041;-81
2022/08/26 10:02:58;;;;;;;11.43;4.60;;;;;;;25.90;63.32;100577.13;5036805;28;20469;-82
2022/08/26 10:06:03;;;;;;;10.27;4.63;;;;;;;26.26;62.97;100628.44;5025807;28;20108;-84
2022/08/26 10:09:06;;;;;;;10.73;4.78;;;;;;;26.45;62.92;100649.63;5029088;28;20032;-86
2022/08/26 10:15:08;;;;;;;9.98;4.88;;;;;;;26.37;62.56;100657.75;4991965;28;20033;-84
2022/08/26 10:21:38;;;;;;;8.63;4.30;;;;;;;26.36;62.78;100648.81;4979682;28;20129;-85
2022/08/26 10:24:18;;;;;;;7.35;4.40;;;;;;;26.23;62.87;100617.78;4974373;28;20419;-83
2022/08/26 10:27:27;;;;;;;9.93;4.95;;;;;;;26.37;63.10;100644.34;4973756;28;20044;-84
2022/08/26 10:30:30;;;;;;;9.68;4.68;;;;;;;26.36;63.11;100642.59;4967816;28;20035;-83
2022/08/26 10:33:14;;;;;;;7.68;4.53;;;;;;;25.77;63.06;100541.59;4990840;28;20058;-82
2022/08/26 10:39:24;;;;;;;10.60;4.50;;;;;;;25.76;62.51;100537.16;4996155;28;20102;-86
2022/08/26 10:42:07;;;;;;;11.38;4.95;;;;;;;26.43;62.04;100633.56;4986874;28;20113;-83
2022/08/26 10:44:38;;;;;;;9.27;4.10;;;;;;;26.25;62.34;100599.03;4997898;28;20062;-83
2022/08/26 11:03:02;;;;;;;8.40;4.63;;;;;;;25.96;63.08;100554.78;5093631;23;20037;-85
2022/08/26 11:09:39;;;;;;;7.63;4.32;;;;;;;25.87;62.95;100531.69;4933007;29;20038;-83
2022/08/26 11:18:54;;;;;;;7.20;4.28;;;;;;;25.86;63.26;100518.31;4876344;29;20145;-83
2022/08/26 11:31:49;;;;;;;;;;;;;;;;;;;;;
2022/08/26 11:34:15;;;;;;;9.05;4.05;;;;;;;25.83;63.47;100508.53;4887872;29;20070;-83
2022/08/26 11:36:53;;;;;;;;;;;;;;;26.40;63.29;100601.50;4931167;28;20566;-83
2022/08/26 11:39:56;;;;;;;8.07;3.90;;;;;;;26.40;63.61;100605.03;4970505;28;19913;-83
2022/08/26 11:42:48;;;;;;;8.45;4.47;;;;;;;25.87;63.32;100507.59;4976375;28;20059;-83
2022/08/26 11:46:00;;;;;;;7.30;4.10;;;;;;;26.37;63.46;100596.16;4966239;28;20049;-84
2022/08/26 11:48:49;;;;;;;7.65;3.97;;;;;;;26.33;63.26;100573.91;4969188;28;20045;-83
2022/08/26 11:52:02;;;;;;;;;;;;;;;;;;;;;
2022/08/26 11:58:39;;;;;;;8.40;4.05;;;;;;;26.41;63.30;100576.47;4988409;28;20093;-85
2022/08/26 12:01:46;;;;;;;6.28;4.03;;;;;;;26.38;63.61;100579.19;4906987;29;20047;-82
2022/08/26 12:07:59;;;;;;;7.88;4.30;;;;;;;26.07;63.37;100514.50;4956229;28;20149;-84
2022/08/26 12:11:07;;;;;;;7.22;4.05;;;;;;;26.43;63.44;100573.78;4957626;28;20041;-84
2022/08/26 12:13:37;;;;;;;6.03;4.38;;;;;;;26.07;63.37;100510.03;4959672;28;20054;-83
2022/08/26 12:16:23;;;;;;;;;;;;;;;;;;;;;
2022/08/26 12:19:49;;;;;;;6.82;3.95;;;;;;;26.46;63.40;100563.91;4916147;29;20045;-83
2022/08/26 12:22:28;;;;;;;6.65;3.83;;;;;;;25.87;63.50;100462.13;4909890;29;20032;-85
2022/08/26 12:25:27;;;;;;;7.97;4.57;;;;;;;26.41;63.64;100563.06;4904374;29;20126;-83
2022/08/26 12:28:37;;;;;;;5.68;4.30;;;;;;;26.46;63.38;100555.88;4927714;29;20114;-84
2022/08/26 12:31:40;;;;;;;6.00;3.80;;;;;;;26.45;63.54;100555.91;4929020;29;20039;-81
2022/08/26 12:37:23;;;;;;;;;;;;;;;;;;;;;
2022/08/26 12:40:00;;;;;;;5.28;4.00;;;;;;;26.07;63.38;100493.97;4993051;28;20600;-83
2022/08/26 12:43:00;;;;;;;7.18;4.15;;;;;;;25.95;63.43;100465.59;4999526;28;20061;-82
2022/08/26 12:45:59;;;;;;;10.10;4.35;;;;;;;26.45;63.49;100548.75;4985508;28;20165;-82
2022/08/26 12:48:48;;;;;;;8.90;3.45;;;;;;;26.44;63.50;100546.06;4983605;28;20060;-82
2022/08/26 12:51:48;;;;;;;6.45;4.18;;;;;;;26.12;63.37;100496.56;4995771;28;20109;-83
2022/08/26 12:54:57;;;;;;;7.05;3.80;;;;;;;25.89;63.43;100456.78;5035645;28;20667;-83
2022/08/26 12:57:10;;;;;;;6.28;3.97;;;;;;;25.97;63.37;100468.25;5033662;28;20516;-83
2022/08/26 13:00:26;;;;;;;7.88;3.90;;;;;;;26.45;63.38;100545.19;5047373;28;20075;-83
2022/08/26 13:02:55;;;;;;;6.90;3.70;;;;;;;25.87;63.68;100458.56;5043140;28;20033;-85
2022/08/26 13:05:23;;;;;;;5.30;3.65;;;;;;;26.00;63.45;100486.94;5046659;28;20062;-83